Darstellungsparameter: Aktuell verwendete Einstellungen:
Skalierung der Graphiken ... ?
xyx+y,   Skalierungsfaktor:      Skalierung: Modus: x, Faktor: 1
Darstellungszeitraum ... ?
Vom - - bis: - -   Zeitraum: 24.07.2020 - 26.07.2020
Min/Max/Avg-Anzeige ... ?
Zeige MMA aktuell
Zeige MMA Monat
Zeige MMA alles
Zeige --A aktuell
Zeige --A Monat
Zeige --A alles
Keine MMA-Anzeige
MMA:
Average (ber die Originaldaten)
MMA-Basis: 24.07.2020 - 26.07.2020
Quicknavigation für Darstellung... ?
Tage:      1T, 2T, 3T, 5T -1T -2T -3T -5T +1T +2T +3T +5T
Wochen: 1W, 2W, 3W -1W -2W -3W +1W +2W +3W
Monate: 1M, 3M, 6M -1M -3M -6M +1M +3M +6M
Jahre:    1J, 3J, 5J, 10J -1J -3J -5J -10J +1J +3J +5J +10J
Nutze für die Darstellung ... ?
Originaldaten oder Mittelwerte auf ...
Stundenbasis Tagesbasis Wochenbasis
Monatsbasis Jahresbasis      Datenbasis: Original-Daten
Darstellen als:
Statistik (Auto) Statistik J:M      Darstellung:
Zur Graphik,    zurück zur Übersicht aller Sensoren.
 
Tabellarische Datenbersicht: ?
 
Sensor: Nr:Datum:Temp:Abs-Feuchte:Windchill:Wind:
Aussen-T/F 1 24-07-2020 00:00:00 18.9 C 10.37 g/m*3 18.9 C 0 km/h
2 24-07-2020 00:05:00 18.9 C 10.53 g/m*3 18.9 C 0 km/h
3 24-07-2020 00:10:00 18.9 C 10.37 g/m*3 18.9 C 0 km/h
4 24-07-2020 00:15:00 18.8 C 10.63 g/m*3 18.8 C 0 km/h
5 24-07-2020 00:20:00 18.8 C 10.47 g/m*3 18.8 C 0 km/h
6 24-07-2020 00:25:00 18.8 C 10.47 g/m*3 18.8 C 0 km/h
7 24-07-2020 00:30:00 18.7 C 10.57 g/m*3 18.7 C 0 km/h
8 24-07-2020 00:35:00 18.7 C 10.41 g/m*3 18.7 C 0 km/h
9 24-07-2020 00:40:00 18.7 C 10.57 g/m*3 18.7 C 0 km/h
10 24-07-2020 00:45:00 18.6 C 10.66 g/m*3 18.6 C 0 km/h
11 24-07-2020 00:50:00 18.6 C 10.5 g/m*3 18.6 C 0 km/h
12 24-07-2020 00:55:00 18.6 C 10.5 g/m*3 18.6 C 0 km/h
13 24-07-2020 01:00:00 18.5 C 10.6 g/m*3 18.5 C 0 km/h
14 24-07-2020 01:05:00 18.4 C 10.38 g/m*3 18.4 C 0 km/h
15 24-07-2020 01:10:00 18.3 C 10.48 g/m*3 18.3 C 0 km/h
16 24-07-2020 01:15:00 18.3 C 10.48 g/m*3 18.3 C 0 km/h
17 24-07-2020 01:20:00 18.3 C 10.48 g/m*3 18.3 C 0 km/h
18 24-07-2020 01:25:00 18.2 C 10.41 g/m*3 18.2 C 0 km/h
19 24-07-2020 01:30:00 18.2 C 10.26 g/m*3 18.2 C 1.6 km/h
20 24-07-2020 01:35:00 18.1 C 10.2 g/m*3 18.1 C 4.8 km/h
21 24-07-2020 01:40:00 18.1 C 10.2 g/m*3 18.1 C 6.4 km/h
22 24-07-2020 01:45:00 18.1 C 10.2 g/m*3 18.1 C 6.4 km/h
23 24-07-2020 01:50:00 18.1 C 10.35 g/m*3 18.1 C 0 km/h
24 24-07-2020 01:55:00 18.1 C 10.35 g/m*3 18.1 C 0 km/h
25 24-07-2020 02:00:00 18.1 C 10.35 g/m*3 18.1 C 0 km/h
Sensor: Nr:Datum:Temp:Abs-Feuchte:Windchill:Wind:
Aussen-T/F 26 24-07-2020 02:05:00 18.1 C 10.51 g/m*3 18.1 C 0 km/h
27 24-07-2020 02:10:00 17.9 C 10.23 g/m*3 17.9 C 0 km/h
28 24-07-2020 02:15:00 17.8 C 10.32 g/m*3 17.8 C 0 km/h
29 24-07-2020 02:20:00 17.7 C 10.26 g/m*3 17.7 C 0 km/h
30 24-07-2020 02:25:00 17.6 C 10.35 g/m*3 17.6 C 0 km/h
31 24-07-2020 02:30:00 17.4 C 10.08 g/m*3 17.4 C 0 km/h
32 24-07-2020 02:35:00 17.2 C 10.1 g/m*3 17.2 C 0 km/h
33 24-07-2020 02:40:00 17.1 C 10.04 g/m*3 17.1 C 1.6 km/h
34 24-07-2020 02:45:00 17 C 9.98 g/m*3 17 C 3.2 km/h
35 24-07-2020 02:50:00 16.9 C 9.92 g/m*3 16.9 C 1.6 km/h
36 24-07-2020 02:55:00 16.8 C 9.87 g/m*3 16.8 C 1.6 km/h
37 24-07-2020 03:00:00 16.7 C 9.95 g/m*3 16.7 C 1.6 km/h
38 24-07-2020 03:05:00 16.7 C 10.09 g/m*3 16.7 C 0 km/h
39 24-07-2020 03:10:00 16.6 C 10.03 g/m*3 16.6 C 1.6 km/h
40 24-07-2020 03:15:00 16.5 C 9.97 g/m*3 16.5 C 1.6 km/h
41 24-07-2020 03:20:00 16.4 C 9.91 g/m*3 16.4 C 0 km/h
42 24-07-2020 03:25:00 16.4 C 9.91 g/m*3 16.4 C 0 km/h
43 24-07-2020 03:30:00 16.3 C 9.85 g/m*3 16.3 C 0 km/h
44 24-07-2020 03:35:00 16.3 C 9.99 g/m*3 16.3 C 0 km/h
45 24-07-2020 03:40:00 16.3 C 10.13 g/m*3 16.3 C 0 km/h
46 24-07-2020 03:45:00 16.2 C 10.07 g/m*3 16.2 C 0 km/h
47 24-07-2020 03:50:00 16.3 C 10.27 g/m*3 16.3 C 0 km/h
48 24-07-2020 03:55:00 16.3 C 10.41 g/m*3 16.3 C 0 km/h
49 24-07-2020 04:00:00 16.3 C 10.27 g/m*3 16.3 C 0 km/h
50 24-07-2020 04:05:00 16.2 C 10.2 g/m*3 16.2 C 0 km/h
Sensor: Nr:Datum:Temp:Abs-Feuchte:Windchill:Wind:
Aussen-T/F 51 24-07-2020 04:10:00 16.2 C 10.2 g/m*3 16.2 C 0 km/h
52 24-07-2020 04:15:00 16.2 C 10.2 g/m*3 16.2 C 0 km/h
53 24-07-2020 04:20:00 16.1 C 10.01 g/m*3 16.1 C 0 km/h
54 24-07-2020 04:25:00 16.2 C 10.2 g/m*3 16.2 C 1.6 km/h
55 24-07-2020 04:30:00 16.2 C 10.07 g/m*3 16.2 C 3.2 km/h
56 24-07-2020 04:35:00 16.4 C 10.19 g/m*3 16.4 C 3.2 km/h
57 24-07-2020 04:40:00 16.5 C 10.25 g/m*3 16.5 C 8.1 km/h
58 24-07-2020 04:45:00 16.6 C 10.45 g/m*3 16.6 C 3.2 km/h
59 24-07-2020 04:50:00 16.6 C 10.31 g/m*3 16.6 C 6.4 km/h
60 24-07-2020 04:55:00 16.6 C 10.31 g/m*3 16.6 C 4.8 km/h
61 24-07-2020 05:00:00 16.7 C 10.37 g/m*3 16.7 C 3.2 km/h
62 24-07-2020 05:05:00 16.6 C 10.45 g/m*3 16.6 C 3.2 km/h
63 24-07-2020 05:10:00 16.6 C 10.31 g/m*3 16.6 C 1.6 km/h
64 24-07-2020 05:15:00 16.6 C 10.45 g/m*3 16.6 C 0 km/h
65 24-07-2020 05:20:00 16.6 C 10.59 g/m*3 16.6 C 1.6 km/h
66 24-07-2020 05:25:00 16.6 C 10.59 g/m*3 16.6 C 0 km/h
67 24-07-2020 05:30:00 16.6 C 10.59 g/m*3 16.6 C 0 km/h
68 24-07-2020 05:35:00 16.4 C 10.33 g/m*3 16.4 C 1.6 km/h
69 24-07-2020 05:40:00 16.3 C 10.41 g/m*3 16.3 C 0 km/h
70 24-07-2020 05:45:00 16.2 C 10.34 g/m*3 16.2 C 0 km/h
71 24-07-2020 05:50:00 16.1 C 10.28 g/m*3 16.1 C 1.6 km/h
72 24-07-2020 05:55:00 16 C 10.35 g/m*3 16 C 0 km/h
73 24-07-2020 06:00:00 15.9 C 10.29 g/m*3 15.9 C 0 km/h
74 24-07-2020 06:05:00 15.8 C 10.23 g/m*3 15.8 C 0 km/h
75 24-07-2020 06:10:00 15.8 C 10.36 g/m*3 15.8 C 0 km/h
Sensor: Nr:Datum:Temp:Abs-Feuchte:Windchill:Wind:
Aussen-T/F 76 24-07-2020 06:15:00 15.7 C 10.3 g/m*3 15.7 C 0 km/h
77 24-07-2020 06:20:00 15.7 C 10.3 g/m*3 15.7 C 0 km/h
78 24-07-2020 06:25:00 15.7 C 10.3 g/m*3 15.7 C 0 km/h
79 24-07-2020 06:30:00 15.7 C 10.3 g/m*3 15.7 C 0 km/h
80 24-07-2020 06:35:00 15.7 C 10.3 g/m*3 15.7 C 0 km/h
81 24-07-2020 06:40:00 15.7 C 10.3 g/m*3 15.7 C 0 km/h
82 24-07-2020 06:45:00 15.8 C 10.5 g/m*3 15.8 C 1.6 km/h
83 24-07-2020 06:50:00 15.9 C 10.56 g/m*3 15.9 C 0 km/h
84 24-07-2020 06:55:00 16.1 C 10.83 g/m*3 16.1 C 0 km/h
85 24-07-2020 07:00:00 16.2 C 10.76 g/m*3 16.2 C 1.6 km/h
86 24-07-2020 07:05:00 16.3 C 10.68 g/m*3 16.3 C 1.6 km/h
87 24-07-2020 07:10:00 16.5 C 10.81 g/m*3 16.5 C 4.8 km/h
88 24-07-2020 07:15:00 16.7 C 10.8 g/m*3 16.7 C 6.4 km/h
89 24-07-2020 07:20:00 16.9 C 10.79 g/m*3 16.9 C 4.8 km/h
90 24-07-2020 07:25:00 17.1 C 10.92 g/m*3 17.1 C 3.2 km/h
91 24-07-2020 07:30:00 17.2 C 10.84 g/m*3 17.2 C 4.8 km/h
92 24-07-2020 07:35:00 17.3 C 10.75 g/m*3 17.3 C 4.8 km/h
93 24-07-2020 07:40:00 17.4 C 10.82 g/m*3 17.4 C 4.8 km/h
94 24-07-2020 07:45:00 17.6 C 10.95 g/m*3 17.6 C 1.6 km/h
95 24-07-2020 07:50:00 17.6 C 10.95 g/m*3 17.6 C 6.4 km/h
96 24-07-2020 07:55:00 17.7 C 11.01 g/m*3 17.7 C 4.8 km/h
97 24-07-2020 08:00:00 17.8 C 11.08 g/m*3 17.8 C 4.8 km/h
98 24-07-2020 08:05:00 17.9 C 10.99 g/m*3 17.9 C 6.4 km/h
99 24-07-2020 08:10:00 18 C 10.91 g/m*3 18 C 8.1 km/h
100 24-07-2020 08:15:00 18.2 C 11.04 g/m*3 18.2 C 6.4 km/h
Sensor: Nr:Datum:Temp:Abs-Feuchte:Windchill:Wind:
Aussen-T/F 101 24-07-2020 08:20:00 18.3 C 10.94 g/m*3 18.3 C 8.1 km/h
102 24-07-2020 08:25:00 18.4 C 10.85 g/m*3 18.4 C 8.1 km/h
103 24-07-2020 08:30:00 18.6 C 10.98 g/m*3 18.6 C 6.4 km/h
104 24-07-2020 08:35:00 18.6 C 10.98 g/m*3 18.6 C 11.3 km/h
105 24-07-2020 08:40:00 18.7 C 11.05 g/m*3 18.7 C 11.3 km/h
106 24-07-2020 08:45:00 18.8 C 10.95 g/m*3 18.8 C 9.7 km/h
107 24-07-2020 08:50:00 18.9 C 11.02 g/m*3 18.9 C 6.4 km/h
108 24-07-2020 08:55:00 19 C 10.92 g/m*3 19 C 9.7 km/h
109 24-07-2020 09:00:00 19.2 C 11.05 g/m*3 19.2 C 6.4 km/h
110 24-07-2020 09:05:00 19.3 C 10.95 g/m*3 19.3 C 4.8 km/h
111 24-07-2020 09:10:00 19.5 C 11.08 g/m*3 19.5 C 4.8 km/h
112 24-07-2020 09:15:00 19.7 C 11.04 g/m*3 19.7 C 6.4 km/h
113 24-07-2020 09:20:00 19.9 C 11 g/m*3 19.9 C 6.4 km/h
114 24-07-2020 09:25:00 20.2 C 11.19 g/m*3 20.2 C 4.8 km/h
115 24-07-2020 09:30:00 20.4 C 11.14 g/m*3 20.4 C 4.8 km/h
116 24-07-2020 09:35:00 20.7 C 11.34 g/m*3 20.7 C 4.8 km/h
117 24-07-2020 09:40:00 20.9 C 10.75 g/m*3 20.9 C 1.6 km/h
118 24-07-2020 09:45:00 21.2 C 10.38 g/m*3 21.2 C 3.2 km/h
119 24-07-2020 09:50:00 21.4 C 10.5 g/m*3 21.4 C 3.2 km/h
120 24-07-2020 09:55:00 21.7 C 10.68 g/m*3 21.7 C 3.2 km/h
121 24-07-2020 10:00:00 21.9 C 10.61 g/m*3 21.9 C 1.6 km/h
122 24-07-2020 10:05:00 22.1 C 10.74 g/m*3 22.1 C 4.8 km/h
123 24-07-2020 10:10:00 22.3 C 10.47 g/m*3 22.3 C 1.6 km/h
124 24-07-2020 10:15:00 22.4 C 10.53 g/m*3 22.4 C 3.2 km/h
125 24-07-2020 10:20:00 22.4 C 10.33 g/m*3 22.4 C 3.2 km/h
Sensor: Nr:Datum:Temp:Abs-Feuchte:Windchill:Wind:
Aussen-T/F 126 24-07-2020 10:25:00 22.4 C 10.53 g/m*3 22.4 C 3.2 km/h
127 24-07-2020 10:30:00 22.3 C 10.47 g/m*3 22.3 C 4.8 km/h
128 24-07-2020 10:35:00 22.3 C 10.86 g/m*3 22.3 C 1.6 km/h
129 24-07-2020 10:40:00 22.3 C 10.47 g/m*3 22.3 C 1.6 km/h
130 24-07-2020 10:45:00 22.3 C 10.47 g/m*3 22.3 C 1.6 km/h
131 24-07-2020 10:50:00 22.3 C 10.66 g/m*3 22.3 C 0 km/h
132 24-07-2020 10:55:00 22.4 C 10.53 g/m*3 22.4 C 4.8 km/h
133 24-07-2020 11:00:00 22.7 C 10.51 g/m*3 22.7 C 1.6 km/h
134 24-07-2020 11:05:00 22.8 C 10.16 g/m*3 22.8 C 6.4 km/h
135 24-07-2020 11:10:00 22.9 C 10.63 g/m*3 22.9 C 6.4 km/h
136 24-07-2020 11:15:00 23.2 C 10.19 g/m*3 23.2 C 6.4 km/h
137 24-07-2020 11:20:00 23.3 C 10.45 g/m*3 23.3 C 3.2 km/h
138 24-07-2020 11:25:00 23.4 C 10.3 g/m*3 23.4 C 6.4 km/h
139 24-07-2020 11:30:00 23.4 C 10.51 g/m*3 23.4 C 9.7 km/h
140 24-07-2020 11:35:00 23.5 C 10.15 g/m*3 23.5 C 8.1 km/h
141 24-07-2020 11:40:00 23.6 C 10.63 g/m*3 23.6 C 6.4 km/h
142 24-07-2020 11:45:00 23.6 C 10.21 g/m*3 23.6 C 8.1 km/h
143 24-07-2020 11:50:00 23.5 C 10.36 g/m*3 23.5 C 6.4 km/h
144 24-07-2020 11:55:00 23.5 C 10.36 g/m*3 23.5 C 9.7 km/h
145 24-07-2020 12:00:00 23.6 C 10.63 g/m*3 23.6 C 6.4 km/h
146 24-07-2020 12:05:00 23.8 C 10.33 g/m*3 23.8 C 12.9 km/h
147 24-07-2020 12:10:00 24 C 9.79 g/m*3 24 C 14.5 km/h
148 24-07-2020 12:15:00 24.3 C 10.4 g/m*3 24.3 C 14.5 km/h
149 24-07-2020 12:20:00 24.8 C 9.79 g/m*3 24.8 C 19.3 km/h
150 24-07-2020 12:25:00 24.8 C 10.02 g/m*3 24.8 C 14.5 km/h
Sensor: Nr:Datum:Temp:Abs-Feuchte:Windchill:Wind:
Aussen-T/F 151 24-07-2020 12:30:00 24.7 C 9.51 g/m*3 24.7 C 19.3 km/h
152 24-07-2020 12:35:00 24.7 C 10.19 g/m*3 24.7 C 14.5 km/h
153 24-07-2020 12:40:00 24.8 C 9.79 g/m*3 24.8 C 12.9 km/h
154 24-07-2020 12:45:00 25.1 C 9.95 g/m*3 25.1 C 17.7 km/h
155 24-07-2020 12:50:00 25.3 C 9.83 g/m*3 25.3 C 12.9 km/h
156 24-07-2020 12:55:00 25.2 C 9.78 g/m*3 25.2 C 17.7 km/h
157 24-07-2020 13:00:00 25.2 C 9.54 g/m*3 25.2 C 11.3 km/h
158 24-07-2020 13:05:00 25.2 C 9.31 g/m*3 25.2 C 16.1 km/h
159 24-07-2020 13:10:00 25.5 C 9.23 g/m*3 25.5 C 16.1 km/h
160 24-07-2020 13:15:00 25.8 C 9.87 g/m*3 25.8 C 14.5 km/h
161 24-07-2020 13:20:00 25.7 C 9.58 g/m*3 25.7 C 8.1 km/h
162 24-07-2020 13:25:00 25.7 C 9.58 g/m*3 25.7 C 14.5 km/h
163 24-07-2020 13:30:00 25.8 C 9.39 g/m*3 25.8 C 11.3 km/h
164 24-07-2020 13:35:00 25.9 C 9.68 g/m*3 25.9 C 14.5 km/h
165 24-07-2020 13:40:00 25.8 C 9.63 g/m*3 25.8 C 6.4 km/h
166 24-07-2020 13:45:00 25.8 C 9.87 g/m*3 25.8 C 14.5 km/h
167 24-07-2020 13:50:00 25.7 C 10.29 g/m*3 25.7 C 9.7 km/h
168 24-07-2020 13:55:00 25.7 C 9.58 g/m*3 25.7 C 11.3 km/h
169 24-07-2020 14:00:00 25.7 C 10.29 g/m*3 25.7 C 9.7 km/h
170 24-07-2020 14:05:00 25.7 C 9.82 g/m*3 25.7 C 9.7 km/h
171 24-07-2020 14:10:00 25.7 C 9.58 g/m*3 25.7 C 12.9 km/h
172 24-07-2020 14:15:00 25.7 C 10.06 g/m*3 25.7 C 8.1 km/h
173 24-07-2020 14:20:00 25.7 C 9.58 g/m*3 25.7 C 11.3 km/h
174 24-07-2020 14:25:00 25.7 C 9.82 g/m*3 25.7 C 12.9 km/h
175 24-07-2020 14:30:00 25.6 C 9.76 g/m*3 25.6 C 11.3 km/h
Sensor: Nr:Datum:Temp:Abs-Feuchte:Windchill:Wind:
Aussen-T/F 176 24-07-2020 14:35:00 25.5 C 9.71 g/m*3 25.5 C 11.3 km/h
177 24-07-2020 14:40:00 25.4 C 9.65 g/m*3 25.4 C 4.8 km/h
178 24-07-2020 14:45:00 25.4 C 9.89 g/m*3 25.4 C 9.7 km/h
179 24-07-2020 14:50:00 25.3 C 9.6 g/m*3 25.3 C 9.7 km/h
180 24-07-2020 14:55:00 25.3 C 10.07 g/m*3 25.3 C 9.7 km/h
181 24-07-2020 15:00:00 25.3 C 10.07 g/m*3 25.3 C 11.3 km/h
182 24-07-2020 15:05:00 25.2 C 9.78 g/m*3 25.2 C 11.3 km/h
183 24-07-2020 15:10:00 25.2 C 10.24 g/m*3 25.2 C 8.1 km/h
184 24-07-2020 15:15:00 25.3 C 9.83 g/m*3 25.3 C 11.3 km/h
185 24-07-2020 15:20:00 25.1 C 9.95 g/m*3 25.1 C 11.3 km/h
186 24-07-2020 15:25:00 24.9 C 10.07 g/m*3 24.9 C 11.3 km/h
187 24-07-2020 15:30:00 24.7 C 9.96 g/m*3 24.7 C 11.3 km/h
188 24-07-2020 15:35:00 24.6 C 10.13 g/m*3 24.6 C 14.5 km/h
189 24-07-2020 15:40:00 24.6 C 10.13 g/m*3 24.6 C 9.7 km/h
190 24-07-2020 15:45:00 24.5 C 10.3 g/m*3 24.5 C 3.2 km/h
191 24-07-2020 15:50:00 24.5 C 10.07 g/m*3 24.5 C 6.4 km/h
192 24-07-2020 15:55:00 24.6 C 10.58 g/m*3 24.6 C 4.8 km/h
193 24-07-2020 16:00:00 24.7 C 10.19 g/m*3 24.7 C 8.1 km/h
194 24-07-2020 16:05:00 24.7 C 10.41 g/m*3 24.7 C 6.4 km/h
195 24-07-2020 16:10:00 24.8 C 10.47 g/m*3 24.8 C 6.4 km/h
196 24-07-2020 16:15:00 24.8 C 10.24 g/m*3 24.8 C 6.4 km/h
197 24-07-2020 16:20:00 24.8 C 10.47 g/m*3 24.8 C 8.1 km/h
198 24-07-2020 16:25:00 24.7 C 10.41 g/m*3 24.7 C 4.8 km/h
199 24-07-2020 16:30:00 24.8 C 10.47 g/m*3 24.8 C 9.7 km/h
200 24-07-2020 16:35:00 24.8 C 10.47 g/m*3 24.8 C 8.1 km/h
Sensor: Nr:Datum:Temp:Abs-Feuchte:Windchill:Wind:
Aussen-T/F 201 24-07-2020 16:40:00 24.9 C 10.53 g/m*3 24.9 C 11.3 km/h
202 24-07-2020 16:45:00 24.9 C 10.76 g/m*3 24.9 C 12.9 km/h
203 24-07-2020 16:50:00 25.1 C 10.65 g/m*3 25.1 C 9.7 km/h
204 24-07-2020 16:55:00 25.2 C 10.48 g/m*3 25.2 C 11.3 km/h
205 24-07-2020 17:00:00 25.4 C 10.36 g/m*3 25.4 C 8.1 km/h
206 24-07-2020 17:05:00 25.6 C 10.24 g/m*3 25.6 C 11.3 km/h
207 24-07-2020 17:10:00 25.6 C 10.24 g/m*3 25.6 C 8.1 km/h
208 24-07-2020 17:15:00 25.7 C 10.53 g/m*3 25.7 C 6.4 km/h
209 24-07-2020 17:20:00 25.7 C 10.29 g/m*3 25.7 C 6.4 km/h
210 24-07-2020 17:25:00 25.7 C 10.53 g/m*3 25.7 C 8.1 km/h
211 24-07-2020 17:30:00 25.7 C 10.29 g/m*3 25.7 C 6.4 km/h
212 24-07-2020 17:35:00 25.7 C 10.53 g/m*3 25.7 C 4.8 km/h
213 24-07-2020 17:40:00 25.7 C 10.53 g/m*3 25.7 C 6.4 km/h
214 24-07-2020 17:45:00 25.9 C 10.89 g/m*3 25.9 C 8.1 km/h
215 24-07-2020 17:50:00 26.2 C 10.83 g/m*3 26.2 C 8.1 km/h
216 24-07-2020 17:55:00 26.3 C 10.64 g/m*3 26.3 C 9.7 km/h
217 24-07-2020 18:00:00 26.3 C 10.89 g/m*3 26.3 C 8.1 km/h
218 24-07-2020 18:05:00 26.4 C 10.95 g/m*3 26.4 C 8.1 km/h
219 24-07-2020 18:10:00 26.4 C 10.95 g/m*3 26.4 C 12.9 km/h
220 24-07-2020 18:15:00 26.1 C 10.77 g/m*3 26.1 C 4.8 km/h
221 24-07-2020 18:20:00 25.8 C 10.59 g/m*3 25.8 C 9.7 km/h
222 24-07-2020 18:25:00 25.6 C 10.71 g/m*3 25.6 C 11.3 km/h
223 24-07-2020 18:30:00 25.3 C 10.77 g/m*3 25.3 C 9.7 km/h
224 24-07-2020 18:35:00 25.2 C 10.94 g/m*3 25.2 C 12.9 km/h
225 24-07-2020 18:40:00 25.1 C 10.88 g/m*3 25.1 C 8.1 km/h
Sensor: Nr:Datum:Temp:Abs-Feuchte:Windchill:Wind:
Aussen-T/F 226 24-07-2020 18:45:00 25.1 C 11.11 g/m*3 25.1 C 8.1 km/h
227 24-07-2020 18:50:00 24.9 C 11.22 g/m*3 24.9 C 12.9 km/h
228 24-07-2020 18:55:00 24.7 C 11.32 g/m*3 24.7 C 9.7 km/h
229 24-07-2020 19:00:00 24.6 C 11.48 g/m*3 24.6 C 9.7 km/h
230 24-07-2020 19:05:00 24.6 C 11.48 g/m*3 24.6 C 8.1 km/h
231 24-07-2020 19:10:00 24.5 C 11.64 g/m*3 24.5 C 9.7 km/h
232 24-07-2020 19:15:00 24.5 C 11.64 g/m*3 24.5 C 8.1 km/h
233 24-07-2020 19:20:00 24.4 C 11.57 g/m*3 24.4 C 12.9 km/h
234 24-07-2020 19:25:00 24.3 C 11.73 g/m*3 24.3 C 17.7 km/h
235 24-07-2020 19:30:00 24.2 C 11.66 g/m*3 24.2 C 11.3 km/h
236 24-07-2020 19:35:00 24 C 11.75 g/m*3 24 C 9.7 km/h
237 24-07-2020 19:40:00 23.9 C 11.68 g/m*3 23.9 C 6.4 km/h
238 24-07-2020 19:45:00 23.9 C 11.68 g/m*3 23.9 C 6.4 km/h
239 24-07-2020 19:50:00 24 C 11.75 g/m*3 24 C 6.4 km/h
240 24-07-2020 19:55:00 24.1 C 12.03 g/m*3 24.1 C 4.8 km/h
241 24-07-2020 20:00:00 24.2 C 12.1 g/m*3 24.2 C 4.8 km/h
242 24-07-2020 20:05:00 24.4 C 12.02 g/m*3 24.4 C 6.4 km/h
243 24-07-2020 20:10:00 24.5 C 11.86 g/m*3 24.5 C 4.8 km/h
244 24-07-2020 20:15:00 24.4 C 11.79 g/m*3 24.4 C 6.4 km/h
245 24-07-2020 20:20:00 24.3 C 11.95 g/m*3 24.3 C 4.8 km/h
246 24-07-2020 20:25:00 24.2 C 11.88 g/m*3 24.2 C 3.2 km/h
247 24-07-2020 20:30:00 24.1 C 11.6 g/m*3 24.1 C 1.6 km/h
248 24-07-2020 20:35:00 23.9 C 11.9 g/m*3 23.9 C 1.6 km/h
249 24-07-2020 20:40:00 23.8 C 12.05 g/m*3 23.8 C 1.6 km/h
250 24-07-2020 20:45:00 23.6 C 12.34 g/m*3 23.6 C 1.6 km/h
Sensor: Nr:Datum:Temp:Abs-Feuchte:Windchill:Wind:
Aussen-T/F 251 24-07-2020 20:50:00 23.2 C 12.27 g/m*3 23.2 C 1.6 km/h
252 24-07-2020 20:55:00 22.8 C 11.99 g/m*3 22.8 C 3.2 km/h
253 24-07-2020 21:00:00 22.4 C 11.92 g/m*3 22.4 C 4.8 km/h
254 24-07-2020 21:05:00 21.9 C 11.77 g/m*3 21.9 C 6.4 km/h
255 24-07-2020 21:10:00 21.6 C 11.76 g/m*3 21.6 C 8.1 km/h
256 24-07-2020 21:15:00 21.3 C 11.93 g/m*3 21.3 C 6.4 km/h
257 24-07-2020 21:20:00 21.2 C 11.86 g/m*3 21.2 C 6.4 km/h
258 24-07-2020 21:25:00 21 C 11.91 g/m*3 21 C 6.4 km/h
259 24-07-2020 21:30:00 20.9 C 11.84 g/m*3 20.9 C 4.8 km/h
260 24-07-2020 21:35:00 20.8 C 11.95 g/m*3 20.8 C 3.2 km/h
261 24-07-2020 21:40:00 20.7 C 11.88 g/m*3 20.7 C 6.4 km/h
262 24-07-2020 21:45:00 20.6 C 11.99 g/m*3 20.6 C 6.4 km/h
263 24-07-2020 21:50:00 20.6 C 11.99 g/m*3 20.6 C 4.8 km/h
264 24-07-2020 21:55:00 20.6 C 11.81 g/m*3 20.6 C 4.8 km/h
265 24-07-2020 22:00:00 20.6 C 11.99 g/m*3 20.6 C 1.6 km/h
266 24-07-2020 22:05:00 20.6 C 12.17 g/m*3 20.6 C 3.2 km/h
267 24-07-2020 22:10:00 20.6 C 11.99 g/m*3 20.6 C 3.2 km/h
268 24-07-2020 22:15:00 20.6 C 11.99 g/m*3 20.6 C 1.6 km/h
269 24-07-2020 22:20:00 20.7 C 12.06 g/m*3 20.7 C 3.2 km/h
270 24-07-2020 22:25:00 20.8 C 12.13 g/m*3 20.8 C 1.6 km/h
271 24-07-2020 22:30:00 20.8 C 11.95 g/m*3 20.8 C 1.6 km/h
272 24-07-2020 22:35:00 20.9 C 12.02 g/m*3 20.9 C 3.2 km/h
273 24-07-2020 22:40:00 21 C 12.27 g/m*3 21 C 4.8 km/h
274 24-07-2020 22:45:00 21.1 C 12.34 g/m*3 21.1 C 4.8 km/h
275 24-07-2020 22:50:00 21.2 C 12.42 g/m*3 21.2 C 1.6 km/h
Sensor: Nr:Datum:Temp:Abs-Feuchte:Windchill:Wind:
Aussen-T/F 276 24-07-2020 22:55:00 21.3 C 12.49 g/m*3 21.3 C 4.8 km/h
277 24-07-2020 23:00:00 21.4 C 12.56 g/m*3 21.4 C 8.1 km/h
278 24-07-2020 23:05:00 21.4 C 12.56 g/m*3 21.4 C 6.4 km/h
279 24-07-2020 23:10:00 21.4 C 12.56 g/m*3 21.4 C 11.3 km/h
280 24-07-2020 23:15:00 21.4 C 12.56 g/m*3 21.4 C 17.7 km/h
281 24-07-2020 23:20:00 21.4 C 12.56 g/m*3 21.4 C 6.4 km/h
282 24-07-2020 23:25:00 21.3 C 12.68 g/m*3 21.3 C 1.6 km/h
283 24-07-2020 23:30:00 21.2 C 12.79 g/m*3 21.2 C 9.7 km/h
284 24-07-2020 23:35:00 21.2 C 12.79 g/m*3 21.2 C 6.4 km/h
285 24-07-2020 23:40:00 21.1 C 12.9 g/m*3 21.1 C 6.4 km/h
286 24-07-2020 23:45:00 20.9 C 12.75 g/m*3 20.9 C 1.6 km/h
287 24-07-2020 23:50:00 20.8 C 12.86 g/m*3 20.8 C 1.6 km/h
288 24-07-2020 23:55:00 20.6 C 12.89 g/m*3 20.6 C 1.6 km/h
289 25-07-2020 00:00:00 20.4 C 12.91 g/m*3 20.4 C 1.6 km/h
290 25-07-2020 00:05:00 20.3 C 12.84 g/m*3 20.3 C 3.2 km/h
291 25-07-2020 00:10:00 20.2 C 12.94 g/m*3 20.2 C 1.6 km/h
292 25-07-2020 00:15:00 20.1 C 13.04 g/m*3 20.1 C 1.6 km/h
293 25-07-2020 00:20:00 20 C 12.96 g/m*3 20 C 0 km/h
294 25-07-2020 00:25:00 20 C 13.13 g/m*3 20 C 0 km/h
295 25-07-2020 00:30:00 19.9 C 12.89 g/m*3 19.9 C 0 km/h
296 25-07-2020 00:35:00 19.8 C 12.98 g/m*3 19.8 C 0 km/h
297 25-07-2020 00:40:00 19.8 C 12.98 g/m*3 19.8 C 0 km/h
298 25-07-2020 00:45:00 19.8 C 12.98 g/m*3 19.8 C 0 km/h
299 25-07-2020 00:50:00 19.7 C 13.08 g/m*3 19.7 C 0 km/h
300 25-07-2020 00:55:00 19.6 C 13 g/m*3 19.6 C 0 km/h
Sensor: Nr:Datum:Temp:Abs-Feuchte:Windchill:Wind:
Aussen-T/F 301 25-07-2020 01:00:00 19.5 C 12.92 g/m*3 19.5 C 0 km/h
302 25-07-2020 01:05:00 19.3 C 12.94 g/m*3 19.3 C 0 km/h
303 25-07-2020 01:10:00 19.2 C 12.86 g/m*3 19.2 C 0 km/h
304 25-07-2020 01:15:00 19.2 C 12.86 g/m*3 19.2 C 0 km/h
305 25-07-2020 01:20:00 19.1 C 12.95 g/m*3 19.1 C 0 km/h
306 25-07-2020 01:25:00 19 C 12.87 g/m*3 19 C 1.6 km/h
307 25-07-2020 01:30:00 18.9 C 12.8 g/m*3 18.9 C 0 km/h
308 25-07-2020 01:35:00 18.8 C 12.72 g/m*3 18.8 C 4.8 km/h
309 25-07-2020 01:40:00 18.6 C 12.73 g/m*3 18.6 C 4.8 km/h
310 25-07-2020 01:45:00 18.5 C 12.66 g/m*3 18.5 C 4.8 km/h
311 25-07-2020 01:50:00 18.4 C 12.58 g/m*3 18.4 C 4.8 km/h
312 25-07-2020 01:55:00 18.3 C 12.51 g/m*3 18.3 C 6.4 km/h
313 25-07-2020 02:00:00 18.2 C 12.59 g/m*3 18.2 C 6.4 km/h
314 25-07-2020 02:05:00 18.2 C 12.59 g/m*3 18.2 C 4.8 km/h
315 25-07-2020 02:10:00 18.1 C 12.52 g/m*3 18.1 C 6.4 km/h
316 25-07-2020 02:15:00 17.9 C 12.52 g/m*3 17.9 C 6.4 km/h
317 25-07-2020 02:20:00 17.8 C 12.45 g/m*3 17.8 C 1.6 km/h
318 25-07-2020 02:25:00 17.8 C 12.45 g/m*3 17.8 C 4.8 km/h
319 25-07-2020 02:30:00 17.7 C 12.37 g/m*3 17.7 C 1.6 km/h
320 25-07-2020 02:35:00 17.5 C 12.23 g/m*3 17.5 C 3.2 km/h
321 25-07-2020 02:40:00 17.4 C 12.3 g/m*3 17.4 C 1.6 km/h
322 25-07-2020 02:45:00 17.3 C 12.23 g/m*3 17.3 C 1.6 km/h
323 25-07-2020 02:50:00 17.2 C 12.3 g/m*3 17.2 C 3.2 km/h
324 25-07-2020 02:55:00 17.1 C 12.23 g/m*3 17.1 C 3.2 km/h
325 25-07-2020 03:00:00 16.9 C 12.08 g/m*3 16.9 C 4.8 km/h
Sensor: Nr:Datum:Temp:Abs-Feuchte:Windchill:Wind:
Aussen-T/F 326 25-07-2020 03:05:00 16.8 C 12.01 g/m*3 16.8 C 4.8 km/h
327 25-07-2020 03:10:00 16.7 C 11.94 g/m*3 16.7 C 4.8 km/h
328 25-07-2020 03:15:00 16.7 C 12.08 g/m*3 16.7 C 4.8 km/h
329 25-07-2020 03:20:00 16.6 C 12.01 g/m*3 16.6 C 4.8 km/h
330 25-07-2020 03:25:00 16.6 C 12.01 g/m*3 16.6 C 3.2 km/h
331 25-07-2020 03:30:00 16.5 C 11.94 g/m*3 16.5 C 3.2 km/h
332 25-07-2020 03:35:00 16.4 C 11.86 g/m*3 16.4 C 1.6 km/h
333 25-07-2020 03:40:00 16.3 C 11.79 g/m*3 16.3 C 0 km/h
334 25-07-2020 03:45:00 16.2 C 11.72 g/m*3 16.2 C 3.2 km/h
335 25-07-2020 03:50:00 16.1 C 11.65 g/m*3 16.1 C 3.2 km/h
336 25-07-2020 03:55:00 15.9 C 11.51 g/m*3 15.9 C 0 km/h
337 25-07-2020 04:00:00 15.8 C 11.58 g/m*3 15.8 C 0 km/h
338 25-07-2020 04:05:00 15.7 C 11.51 g/m*3 15.7 C 1.6 km/h
339 25-07-2020 04:10:00 15.6 C 11.44 g/m*3 15.6 C 1.6 km/h
340 25-07-2020 04:15:00 15.4 C 11.43 g/m*3 15.4 C 1.6 km/h
341 25-07-2020 04:20:00 15.4 C 11.43 g/m*3 15.4 C 0 km/h
342 25-07-2020 04:25:00 15.3 C 11.36 g/m*3 15.3 C 0 km/h
343 25-07-2020 04:30:00 15.2 C 11.29 g/m*3 15.2 C 1.6 km/h
344 25-07-2020 04:35:00 15.1 C 11.35 g/m*3 15.1 C 1.6 km/h
345 25-07-2020 04:40:00 15.1 C 11.35 g/m*3 15.1 C 0 km/h
346 25-07-2020 04:45:00 15 C 11.28 g/m*3 15 C 0 km/h
347 25-07-2020 04:50:00 14.9 C 11.22 g/m*3 14.9 C 0 km/h
348 25-07-2020 04:55:00 14.9 C 11.22 g/m*3 14.9 C 0 km/h
349 25-07-2020 05:00:00 14.8 C 11.15 g/m*3 14.8 C 0 km/h
350 25-07-2020 05:05:00 14.7 C 11.08 g/m*3 14.7 C 1.6 km/h
Sensor: Nr:Datum:Temp:Abs-Feuchte:Windchill:Wind:
Aussen-T/F 351 25-07-2020 05:10:00 14.7 C 11.21 g/m*3 14.7 C 0 km/h
352 25-07-2020 05:15:00 14.6 C 11.14 g/m*3 14.6 C 1.6 km/h
353 25-07-2020 05:20:00 14.6 C 11.14 g/m*3 14.6 C 0 km/h
354 25-07-2020 05:25:00 14.4 C 11 g/m*3 14.4 C 0 km/h
355 25-07-2020 05:30:00 14.4 C 11.13 g/m*3 14.4 C 0 km/h
356 25-07-2020 05:35:00 14.4 C 11.13 g/m*3 14.4 C 1.6 km/h
357 25-07-2020 05:40:00 14.4 C 11.13 g/m*3 14.4 C 0 km/h
358 25-07-2020 05:45:00 14.4 C 11.25 g/m*3 14.4 C 4.8 km/h
359 25-07-2020 05:50:00 14.5 C 11.32 g/m*3 14.5 C 3.2 km/h
360 25-07-2020 05:55:00 14.7 C 11.58 g/m*3 14.7 C 4.8 km/h
361 25-07-2020 06:00:00 14.7 C 11.46 g/m*3 14.7 C 4.8 km/h
362 25-07-2020 06:05:00 14.7 C 11.46 g/m*3 14.7 C 3.2 km/h
363 25-07-2020 06:10:00 14.7 C 11.46 g/m*3 14.7 C 0 km/h
364 25-07-2020 06:15:00 14.6 C 11.39 g/m*3 14.6 C 0 km/h
365 25-07-2020 06:20:00 14.6 C 11.39 g/m*3 14.6 C 0 km/h
366 25-07-2020 06:25:00 14.6 C 11.39 g/m*3 14.6 C 3.2 km/h
367 25-07-2020 06:30:00 14.6 C 11.39 g/m*3 14.6 C 1.6 km/h
368 25-07-2020 06:35:00 14.7 C 11.46 g/m*3 14.7 C 0 km/h
369 25-07-2020 06:40:00 14.7 C 11.46 g/m*3 14.7 C 0 km/h
370 25-07-2020 06:45:00 14.7 C 11.46 g/m*3 14.7 C 0 km/h
371 25-07-2020 06:50:00 14.7 C 11.46 g/m*3 14.7 C 1.6 km/h
372 25-07-2020 06:55:00 14.8 C 11.65 g/m*3 14.8 C 0 km/h
373 25-07-2020 07:00:00 14.8 C 11.65 g/m*3 14.8 C 0 km/h
374 25-07-2020 07:05:00 15 C 11.8 g/m*3 15 C 1.6 km/h
375 25-07-2020 07:10:00 15.2 C 11.94 g/m*3 15.2 C 3.2 km/h
Sensor: Nr:Datum:Temp:Abs-Feuchte:Windchill:Wind:
Aussen-T/F 376 25-07-2020 07:15:00 15.3 C 12.01 g/m*3 15.3 C 1.6 km/h
377 25-07-2020 07:20:00 15.4 C 11.96 g/m*3 15.4 C 1.6 km/h
378 25-07-2020 07:25:00 15.7 C 12.18 g/m*3 15.7 C 1.6 km/h
379 25-07-2020 07:30:00 15.8 C 12.25 g/m*3 15.8 C 0 km/h
380 25-07-2020 07:35:00 16.1 C 12.34 g/m*3 16.1 C 0 km/h
381 25-07-2020 07:40:00 16.3 C 12.49 g/m*3 16.3 C 1.6 km/h
382 25-07-2020 07:45:00 16.7 C 12.51 g/m*3 16.7 C 3.2 km/h
383 25-07-2020 07:50:00 16.8 C 12.44 g/m*3 16.8 C 3.2 km/h
384 25-07-2020 07:55:00 17 C 12.44 g/m*3 17 C 4.8 km/h
385 25-07-2020 08:00:00 17.2 C 12.45 g/m*3 17.2 C 1.6 km/h
386 25-07-2020 08:05:00 17.3 C 12.52 g/m*3 17.3 C 1.6 km/h
387 25-07-2020 08:10:00 17.3 C 12.52 g/m*3 17.3 C 4.8 km/h
388 25-07-2020 08:15:00 17.3 C 12.52 g/m*3 17.3 C 1.6 km/h
389 25-07-2020 08:20:00 17.3 C 12.52 g/m*3 17.3 C 1.6 km/h
390 25-07-2020 08:25:00 17.4 C 12.6 g/m*3 17.4 C 0 km/h
391 25-07-2020 08:30:00 17.4 C 12.6 g/m*3 17.4 C 0 km/h
392 25-07-2020 08:35:00 17.5 C 12.67 g/m*3 17.5 C 0 km/h
393 25-07-2020 08:40:00 17.6 C 12.75 g/m*3 17.6 C 1.6 km/h
394 25-07-2020 08:45:00 17.7 C 12.82 g/m*3 17.7 C 3.2 km/h
395 25-07-2020 08:50:00 17.8 C 12.75 g/m*3 17.8 C 6.4 km/h
396 25-07-2020 08:55:00 18 C 12.9 g/m*3 18 C 3.2 km/h
397 25-07-2020 09:00:00 18.1 C 12.82 g/m*3 18.1 C 4.8 km/h
398 25-07-2020 09:05:00 18.2 C 12.75 g/m*3 18.2 C 3.2 km/h
399 25-07-2020 09:10:00 18.3 C 12.82 g/m*3 18.3 C 0 km/h
400 25-07-2020 09:15:00 18.4 C 13.05 g/m*3 18.4 C 0 km/h
Sensor: Nr:Datum:Temp:Abs-Feuchte:Windchill:Wind:
Aussen-T/F 401 25-07-2020 09:20:00 18.5 C 12.97 g/m*3 18.5 C 3.2 km/h
402 25-07-2020 09:25:00 18.6 C 13.05 g/m*3 18.6 C 1.6 km/h
403 25-07-2020 09:30:00 18.7 C 13.13 g/m*3 18.7 C 1.6 km/h
404 25-07-2020 09:35:00 18.7 C 13.13 g/m*3 18.7 C 3.2 km/h
405 25-07-2020 09:40:00 18.8 C 13.05 g/m*3 18.8 C 4.8 km/h
406 25-07-2020 09:45:00 18.9 C 13.12 g/m*3 18.9 C 3.2 km/h
407 25-07-2020 09:50:00 19.1 C 13.28 g/m*3 19.1 C 0 km/h
408 25-07-2020 09:55:00 19.3 C 13.27 g/m*3 19.3 C 4.8 km/h
409 25-07-2020 10:00:00 19.6 C 13.34 g/m*3 19.6 C 8.1 km/h
410 25-07-2020 10:05:00 19.8 C 13.15 g/m*3 19.8 C 8.1 km/h
411 25-07-2020 10:10:00 20 C 13.31 g/m*3 20 C 6.4 km/h
412 25-07-2020 10:15:00 20.2 C 13.29 g/m*3 20.2 C 9.7 km/h
413 25-07-2020 10:20:00 20.4 C 13.27 g/m*3 20.4 C 9.7 km/h
414 25-07-2020 10:25:00 20.6 C 13.42 g/m*3 20.6 C 8.1 km/h
415 25-07-2020 10:30:00 20.7 C 13.32 g/m*3 20.7 C 8.1 km/h
416 25-07-2020 10:35:00 20.8 C 13.22 g/m*3 20.8 C 8.1 km/h
417 25-07-2020 10:40:00 21 C 13.19 g/m*3 21 C 8.1 km/h
418 25-07-2020 10:45:00 21.4 C 12.94 g/m*3 21.4 C 8.1 km/h
419 25-07-2020 10:50:00 21.7 C 12.78 g/m*3 21.7 C 11.3 km/h
420 25-07-2020 10:55:00 22 C 13 g/m*3 22 C 11.3 km/h
421 25-07-2020 11:00:00 22.2 C 13.15 g/m*3 22.2 C 11.3 km/h
422 25-07-2020 11:05:00 22.2 C 12.96 g/m*3 22.2 C 11.3 km/h
423 25-07-2020 11:10:00 22.2 C 12.96 g/m*3 22.2 C 9.7 km/h
424 25-07-2020 11:15:00 22.2 C 12.96 g/m*3 22.2 C 11.3 km/h
425 25-07-2020 11:20:00 22.2 C 12.57 g/m*3 22.2 C 14.5 km/h
Sensor: Nr:Datum:Temp:Abs-Feuchte:Windchill:Wind:
Aussen-T/F 426 25-07-2020 11:25:00 22.3 C 12.83 g/m*3 22.3 C 14.5 km/h
427 25-07-2020 11:30:00 22.6 C 12.25 g/m*3 22.6 C 16.1 km/h
428 25-07-2020 11:35:00 22.7 C 12.73 g/m*3 22.7 C 11.3 km/h
429 25-07-2020 11:40:00 22.8 C 12.19 g/m*3 22.8 C 16.1 km/h
430 25-07-2020 11:45:00 22.9 C 12.47 g/m*3 22.9 C 11.3 km/h
431 25-07-2020 11:50:00 23.1 C 12.4 g/m*3 23.1 C 14.5 km/h
432 25-07-2020 11:55:00 23.3 C 12.55 g/m*3 23.3 C 9.7 km/h
433 25-07-2020 12:00:00 23.4 C 12.41 g/m*3 23.4 C 9.7 km/h
434 25-07-2020 12:05:00 23.7 C 12.62 g/m*3 23.7 C 6.4 km/h
435 25-07-2020 12:10:00 23.8 C 12.26 g/m*3 23.8 C 17.7 km/h
436 25-07-2020 12:15:00 24 C 12.18 g/m*3 24 C 12.9 km/h
437 25-07-2020 12:20:00 24.1 C 12.47 g/m*3 24.1 C 11.3 km/h
438 25-07-2020 12:25:00 24.3 C 12.39 g/m*3 24.3 C 11.3 km/h
439 25-07-2020 12:30:00 24.6 C 12.15 g/m*3 24.6 C 17.7 km/h
440 25-07-2020 12:35:00 24.5 C 12.31 g/m*3 24.5 C 17.7 km/h
441 25-07-2020 12:40:00 24.4 C 12.02 g/m*3 24.4 C 9.7 km/h
442 25-07-2020 12:45:00 24.5 C 12.31 g/m*3 24.5 C 12.9 km/h
443 25-07-2020 12:50:00 24.7 C 12 g/m*3 24.7 C 17.7 km/h
444 25-07-2020 12:55:00 24.5 C 11.86 g/m*3 24.5 C 12.9 km/h
445 25-07-2020 13:00:00 24.6 C 11.93 g/m*3 24.6 C 11.3 km/h
446 25-07-2020 13:05:00 24.8 C 12.29 g/m*3 24.8 C 12.9 km/h
447 25-07-2020 13:10:00 24.7 C 12 g/m*3 24.7 C 17.7 km/h
448 25-07-2020 13:15:00 25 C 11.97 g/m*3 25 C 17.7 km/h
449 25-07-2020 13:20:00 25.2 C 12.11 g/m*3 25.2 C 9.7 km/h
450 25-07-2020 13:25:00 25.2 C 12.11 g/m*3 25.2 C 6.4 km/h
Sensor: Nr:Datum:Temp:Abs-Feuchte:Windchill:Wind:
Aussen-T/F 451 25-07-2020 13:30:00 25.4 C 12.01 g/m*3 25.4 C 17.7 km/h
452 25-07-2020 13:35:00 25.7 C 12.21 g/m*3 25.7 C 11.3 km/h
453 25-07-2020 13:40:00 25.8 C 12.04 g/m*3 25.8 C 12.9 km/h
454 25-07-2020 13:45:00 26.1 C 11.75 g/m*3 26.1 C 17.7 km/h
455 25-07-2020 13:50:00 25.9 C 11.62 g/m*3 25.9 C 19.3 km/h
456 25-07-2020 13:55:00 25.7 C 11.73 g/m*3 25.7 C 19.3 km/h
457 25-07-2020 14:00:00 25.6 C 11.67 g/m*3 25.6 C 9.7 km/h
458 25-07-2020 14:05:00 25.6 C 12.14 g/m*3 25.6 C 12.9 km/h
459 25-07-2020 14:10:00 25.4 C 11.77 g/m*3 25.4 C 12.9 km/h
460 25-07-2020 14:15:00 25.2 C 11.64 g/m*3 25.2 C 14.5 km/h
461 25-07-2020 14:20:00 25.1 C 11.57 g/m*3 25.1 C 16.1 km/h
462 25-07-2020 14:25:00 25.2 C 11.64 g/m*3 25.2 C 11.3 km/h
463 25-07-2020 14:30:00 25.3 C 11.71 g/m*3 25.3 C 22.5 km/h
464 25-07-2020 14:35:00 25.4 C 11.54 g/m*3 25.4 C 14.5 km/h
465 25-07-2020 14:40:00 25.4 C 11.3 g/m*3 25.4 C 17.7 km/h
466 25-07-2020 14:45:00 25.3 C 11.47 g/m*3 25.3 C 14.5 km/h
467 25-07-2020 14:50:00 25.3 C 11.24 g/m*3 25.3 C 19.3 km/h
468 25-07-2020 14:55:00 25.2 C 11.17 g/m*3 25.2 C 16.1 km/h
469 25-07-2020 15:00:00 25.2 C 11.41 g/m*3 25.2 C 14.5 km/h
470 25-07-2020 15:05:00 25.2 C 11.64 g/m*3 25.2 C 11.3 km/h
471 25-07-2020 15:10:00 25.3 C 11.71 g/m*3 25.3 C 14.5 km/h
472 25-07-2020 15:15:00 25.4 C 11.77 g/m*3 25.4 C 14.5 km/h
473 25-07-2020 15:20:00 25.7 C 11.73 g/m*3 25.7 C 11.3 km/h
474 25-07-2020 15:25:00 25.8 C 11.8 g/m*3 25.8 C 11.3 km/h
475 25-07-2020 15:30:00 25.9 C 11.62 g/m*3 25.9 C 11.3 km/h
Sensor: Nr:Datum:Temp:Abs-Feuchte:Windchill:Wind:
Aussen-T/F 476 25-07-2020 15:35:00 26 C 11.2 g/m*3 26 C 9.7 km/h
477 25-07-2020 15:40:00 26.1 C 11.51 g/m*3 26.1 C 6.4 km/h
478 25-07-2020 15:45:00 26.4 C 11.45 g/m*3 26.4 C 17.7 km/h
479 25-07-2020 15:50:00 26.4 C 11.2 g/m*3 26.4 C 12.9 km/h
480 25-07-2020 15:55:00 26.7 C 11.39 g/m*3 26.7 C 12.9 km/h
481 25-07-2020 16:00:00 26.8 C 11.2 g/m*3 26.8 C 8.1 km/h
482 25-07-2020 16:05:00 26.8 C 11.2 g/m*3 26.8 C 12.9 km/h
483 25-07-2020 16:10:00 27.2 C 11.19 g/m*3 27.2 C 11.3 km/h
484 25-07-2020 16:15:00 27.4 C 11.58 g/m*3 27.4 C 9.7 km/h
485 25-07-2020 16:20:00 27.3 C 10.73 g/m*3 27.3 C 11.3 km/h
486 25-07-2020 16:25:00 27 C 10.81 g/m*3 27 C 11.3 km/h
487 25-07-2020 16:30:00 26.9 C 11.01 g/m*3 26.9 C 11.3 km/h
488 25-07-2020 16:35:00 26.8 C 10.94 g/m*3 26.8 C 11.3 km/h
489 25-07-2020 16:40:00 26.7 C 10.88 g/m*3 26.7 C 12.9 km/h
490 25-07-2020 16:45:00 26.6 C 11.08 g/m*3 26.6 C 9.7 km/h
491 25-07-2020 16:50:00 26.4 C 10.95 g/m*3 26.4 C 11.3 km/h
492 25-07-2020 16:55:00 26.3 C 10.89 g/m*3 26.3 C 9.7 km/h
493 25-07-2020 17:00:00 26.3 C 10.89 g/m*3 26.3 C 8.1 km/h
494 25-07-2020 17:05:00 26.1 C 10.77 g/m*3 26.1 C 9.7 km/h
495 25-07-2020 17:10:00 26.1 C 10.77 g/m*3 26.1 C 8.1 km/h
496 25-07-2020 17:15:00 26 C 10.96 g/m*3 26 C 6.4 km/h
497 25-07-2020 17:20:00 25.9 C 10.89 g/m*3 25.9 C 9.7 km/h
498 25-07-2020 17:25:00 25.8 C 11.07 g/m*3 25.8 C 8.1 km/h
499 25-07-2020 17:30:00 25.7 C 10.77 g/m*3 25.7 C 9.7 km/h
500 25-07-2020 17:35:00 25.7 C 11.01 g/m*3 25.7 C 11.3 km/h
Sensor: Nr:Datum:Temp:Abs-Feuchte:Windchill:Wind:
Aussen-T/F 501 25-07-2020 17:40:00 25.7 C 11.25 g/m*3 25.7 C 6.4 km/h
502 25-07-2020 17:45:00 25.7 C 11.25 g/m*3 25.7 C 4.8 km/h
503 25-07-2020 17:50:00 25.6 C 10.95 g/m*3 25.6 C 9.7 km/h
504 25-07-2020 17:55:00 25.6 C 11.43 g/m*3 25.6 C 6.4 km/h
505 25-07-2020 18:00:00 25.5 C 11.36 g/m*3 25.5 C 8.1 km/h
506 25-07-2020 18:05:00 25.4 C 11.54 g/m*3 25.4 C 3.2 km/h
507 25-07-2020 18:10:00 25.4 C 11.54 g/m*3 25.4 C 3.2 km/h
508 25-07-2020 18:15:00 25.3 C 11.71 g/m*3 25.3 C 1.6 km/h
509 25-07-2020 18:20:00 25.3 C 11.71 g/m*3 25.3 C 4.8 km/h
510 25-07-2020 18:25:00 25.4 C 11.77 g/m*3 25.4 C 4.8 km/h
511 25-07-2020 18:30:00 25.6 C 11.67 g/m*3 25.6 C 6.4 km/h
512 25-07-2020 18:35:00 25.7 C 12.45 g/m*3 25.7 C 1.6 km/h
513 25-07-2020 18:40:00 25.8 C 12.04 g/m*3 25.8 C 4.8 km/h
514 25-07-2020 18:45:00 25.9 C 11.86 g/m*3 25.9 C 0 km/h
515 25-07-2020 18:50:00 26.1 C 12 g/m*3 26.1 C 3.2 km/h
516 25-07-2020 18:55:00 26.2 C 11.82 g/m*3 26.2 C 4.8 km/h
517 25-07-2020 19:00:00 26.1 C 11.75 g/m*3 26.1 C 6.4 km/h
518 25-07-2020 19:05:00 26.1 C 11.51 g/m*3 26.1 C 9.7 km/h
519 25-07-2020 19:10:00 26.1 C 11.75 g/m*3 26.1 C 3.2 km/h
520 25-07-2020 19:15:00 26.2 C 11.82 g/m*3 26.2 C 6.4 km/h
521 25-07-2020 19:20:00 26.4 C 11.7 g/m*3 26.4 C 9.7 km/h
522 25-07-2020 19:25:00 26.5 C 11.77 g/m*3 26.5 C 9.7 km/h
523 25-07-2020 19:30:00 26.3 C 11.64 g/m*3 26.3 C 8.1 km/h
524 25-07-2020 19:35:00 26.1 C 11.51 g/m*3 26.1 C 4.8 km/h
525 25-07-2020 19:40:00 26 C 11.93 g/m*3 26 C 3.2 km/h
Sensor: Nr:Datum:Temp:Abs-Feuchte:Windchill:Wind:
Aussen-T/F 526 25-07-2020 19:45:00 25.9 C 12.35 g/m*3 25.9 C 0 km/h
527 25-07-2020 19:50:00 25.8 C 12.28 g/m*3 25.8 C 3.2 km/h
528 25-07-2020 19:55:00 25.7 C 12.45 g/m*3 25.7 C 0 km/h
529 25-07-2020 20:00:00 25.7 C 12.93 g/m*3 25.7 C 1.6 km/h
530 25-07-2020 20:05:00 25.4 C 12.71 g/m*3 25.4 C 3.2 km/h
531 25-07-2020 20:10:00 25.2 C 12.57 g/m*3 25.2 C 4.8 km/h
532 25-07-2020 20:15:00 24.9 C 12.59 g/m*3 24.9 C 3.2 km/h
533 25-07-2020 20:20:00 24.7 C 12.68 g/m*3 24.7 C 4.8 km/h
534 25-07-2020 20:25:00 24.4 C 12.46 g/m*3 24.4 C 4.8 km/h
535 25-07-2020 20:30:00 24.1 C 12.47 g/m*3 24.1 C 4.8 km/h
536 25-07-2020 20:35:00 23.8 C 12.26 g/m*3 23.8 C 4.8 km/h
537 25-07-2020 20:40:00 23.6 C 12.34 g/m*3 23.6 C 6.4 km/h
538 25-07-2020 20:45:00 23.4 C 12.41 g/m*3 23.4 C 4.8 km/h
539 25-07-2020 20:50:00 23.2 C 12.27 g/m*3 23.2 C 6.4 km/h
540 25-07-2020 20:55:00 23 C 12.33 g/m*3 23 C 6.4 km/h
541 25-07-2020 21:00:00 22.8 C 12.19 g/m*3 22.8 C 6.4 km/h
542 25-07-2020 21:05:00 22.7 C 12.32 g/m*3 22.7 C 6.4 km/h
543 25-07-2020 21:10:00 22.5 C 12.18 g/m*3 22.5 C 8.1 km/h
544 25-07-2020 21:15:00 22.4 C 12.11 g/m*3 22.4 C 6.4 km/h
545 25-07-2020 21:20:00 22.2 C 12.17 g/m*3 22.2 C 4.8 km/h
546 25-07-2020 21:25:00 22.1 C 12.1 g/m*3 22.1 C 6.4 km/h
547 25-07-2020 21:30:00 21.9 C 12.16 g/m*3 21.9 C 6.4 km/h
548 25-07-2020 21:35:00 21.8 C 12.09 g/m*3 21.8 C 6.4 km/h
549 25-07-2020 21:40:00 21.7 C 12.21 g/m*3 21.7 C 4.8 km/h
550 25-07-2020 21:45:00 21.5 C 12.07 g/m*3 21.5 C 6.4 km/h
Sensor: Nr:Datum:Temp:Abs-Feuchte:Windchill:Wind:
Aussen-T/F 551 25-07-2020 21:50:00 21.3 C 11.93 g/m*3 21.3 C 4.8 km/h
552 25-07-2020 21:55:00 21.2 C 12.05 g/m*3 21.2 C 4.8 km/h
553 25-07-2020 22:00:00 21.1 C 11.98 g/m*3 21.1 C 4.8 km/h
554 25-07-2020 22:05:00 20.9 C 11.84 g/m*3 20.9 C 6.4 km/h
555 25-07-2020 22:10:00 20.8 C 11.77 g/m*3 20.8 C 4.8 km/h
556 25-07-2020 22:15:00 20.7 C 11.88 g/m*3 20.7 C 3.2 km/h
557 25-07-2020 22:20:00 20.7 C 11.88 g/m*3 20.7 C 3.2 km/h
558 25-07-2020 22:25:00 20.6 C 11.81 g/m*3 20.6 C 4.8 km/h
559 25-07-2020 22:30:00 20.5 C 11.92 g/m*3 20.5 C 4.8 km/h
560 25-07-2020 22:35:00 20.4 C 11.85 g/m*3 20.4 C 4.8 km/h
561 25-07-2020 22:40:00 20.3 C 11.96 g/m*3 20.3 C 4.8 km/h
562 25-07-2020 22:45:00 20.2 C 11.89 g/m*3 20.2 C 4.8 km/h
563 25-07-2020 22:50:00 20.2 C 12.06 g/m*3 20.2 C 3.2 km/h
564 25-07-2020 22:55:00 20 C 11.92 g/m*3 20 C 3.2 km/h
565 25-07-2020 23:00:00 19.9 C 11.85 g/m*3 19.9 C 4.8 km/h
566 25-07-2020 23:05:00 19.9 C 12.03 g/m*3 19.9 C 4.8 km/h
567 25-07-2020 23:10:00 19.8 C 12.13 g/m*3 19.8 C 0 km/h
568 25-07-2020 23:15:00 19.8 C 12.13 g/m*3 19.8 C 0 km/h
569 25-07-2020 23:20:00 19.8 C 12.3 g/m*3 19.8 C 0 km/h
570 25-07-2020 23:25:00 19.8 C 12.3 g/m*3 19.8 C 0 km/h
571 25-07-2020 23:30:00 19.7 C 12.23 g/m*3 19.7 C 0 km/h
572 25-07-2020 23:35:00 19.6 C 12.32 g/m*3 19.6 C 0 km/h
573 25-07-2020 23:40:00 19.5 C 12.25 g/m*3 19.5 C 0 km/h
574 25-07-2020 23:45:00 19.4 C 12.35 g/m*3 19.4 C 0 km/h
575 25-07-2020 23:50:00 19.4 C 12.35 g/m*3 19.4 C 0 km/h
Sensor: Nr:Datum:Temp:Abs-Feuchte:Windchill:Wind:
Aussen-T/F 576 25-07-2020 23:55:00 19.3 C 12.27 g/m*3 19.3 C 0 km/h
577 26-07-2020 00:00:00 19.3 C 12.27 g/m*3 19.3 C 0 km/h
578 26-07-2020 00:05:00 19.3 C 12.44 g/m*3 19.3 C 0 km/h
579 26-07-2020 00:10:00 19.2 C 12.37 g/m*3 19.2 C 0 km/h
580 26-07-2020 00:15:00 19.2 C 12.37 g/m*3 19.2 C 0 km/h
581 26-07-2020 00:20:00 19.1 C 12.29 g/m*3 19.1 C 0 km/h
582 26-07-2020 00:25:00 19.1 C 12.46 g/m*3 19.1 C 0 km/h
583 26-07-2020 00:30:00 19.1 C 12.46 g/m*3 19.1 C 0 km/h
584 26-07-2020 00:35:00 19.1 C 12.46 g/m*3 19.1 C 0 km/h
585 26-07-2020 00:40:00 19.1 C 12.46 g/m*3 19.1 C 0 km/h
586 26-07-2020 00:45:00 19.1 C 12.46 g/m*3 19.1 C 0 km/h
587 26-07-2020 00:50:00 19.2 C 12.53 g/m*3 19.2 C 0 km/h
588 26-07-2020 00:55:00 19.2 C 12.53 g/m*3 19.2 C 0 km/h
589 26-07-2020 01:00:00 19.2 C 12.53 g/m*3 19.2 C 0 km/h
590 26-07-2020 01:05:00 19.2 C 12.53 g/m*3 19.2 C 0 km/h
591 26-07-2020 01:10:00 19.2 C 12.7 g/m*3 19.2 C 0 km/h
592 26-07-2020 01:15:00 19.2 C 12.7 g/m*3 19.2 C 0 km/h
593 26-07-2020 01:20:00 19.2 C 12.7 g/m*3 19.2 C 1.6 km/h
594 26-07-2020 01:25:00 19.2 C 12.37 g/m*3 19.2 C 3.2 km/h
595 26-07-2020 01:30:00 19.6 C 12.32 g/m*3 19.6 C 9.7 km/h
596 26-07-2020 01:35:00 19.8 C 12.64 g/m*3 19.8 C 8.1 km/h
597 26-07-2020 01:40:00 20.1 C 13.04 g/m*3 20.1 C 11.3 km/h
598 26-07-2020 01:45:00 20.1 C 13.04 g/m*3 20.1 C 9.7 km/h
599 26-07-2020 01:50:00 20.2 C 13.11 g/m*3 20.2 C 12.9 km/h
600 26-07-2020 01:55:00 20.3 C 13.72 g/m*3 20.3 C 6.4 km/h
Sensor: Nr:Datum:Temp:Abs-Feuchte:Windchill:Wind:
Aussen-T/F 601 26-07-2020 02:00:00 20.1 C 13.56 g/m*3 20.1 C 14.5 km/h
602 26-07-2020 02:05:00 20 C 13.83 g/m*3 20 C 6.4 km/h
603 26-07-2020 02:10:00 19.8 C 13.84 g/m*3 19.8 C 8.1 km/h
604 26-07-2020 02:15:00 19.7 C 13.92 g/m*3 19.7 C 6.4 km/h
605 26-07-2020 02:20:00 19.5 C 13.76 g/m*3 19.5 C 4.8 km/h
606 26-07-2020 02:25:00 19.3 C 13.77 g/m*3 19.3 C 6.4 km/h
607 26-07-2020 02:30:00 19.2 C 13.85 g/m*3 19.2 C 6.4 km/h
608 26-07-2020 02:35:00 19.1 C 13.77 g/m*3 19.1 C 8.1 km/h
609 26-07-2020 02:40:00 19 C 13.85 g/m*3 19 C 6.4 km/h
610 26-07-2020 02:45:00 18.9 C 13.93 g/m*3 18.9 C 8.1 km/h
611 26-07-2020 02:50:00 18.8 C 14.01 g/m*3 18.8 C 9.7 km/h
612 26-07-2020 02:55:00 18.7 C 13.93 g/m*3 18.7 C 6.4 km/h
613 26-07-2020 03:00:00 18.6 C 14.01 g/m*3 18.6 C 6.4 km/h
614 26-07-2020 03:05:00 18.4 C 13.84 g/m*3 18.4 C 8.1 km/h
615 26-07-2020 03:10:00 18.3 C 13.92 g/m*3 18.3 C 3.2 km/h
616 26-07-2020 03:15:00 18.3 C 13.92 g/m*3 18.3 C 1.6 km/h
617 26-07-2020 03:20:00 18.3 C 14.07 g/m*3 18.3 C 1.6 km/h
618 26-07-2020 03:25:00 18.2 C 13.99 g/m*3 18.2 C 3.2 km/h
619 26-07-2020 03:30:00 18.2 C 13.99 g/m*3 18.2 C 3.2 km/h
620 26-07-2020 03:35:00 18.2 C 13.99 g/m*3 18.2 C 3.2 km/h
621 26-07-2020 03:40:00 18.1 C 14.06 g/m*3 18.1 C 4.8 km/h
622 26-07-2020 03:45:00 18 C 13.98 g/m*3 18 C 3.2 km/h
623 26-07-2020 03:50:00 17.9 C 13.89 g/m*3 17.9 C 4.8 km/h
624 26-07-2020 03:55:00 17.9 C 13.89 g/m*3 17.9 C 4.8 km/h
625 26-07-2020 04:00:00 17.8 C 13.81 g/m*3 17.8 C 4.8 km/h
Sensor: Nr:Datum:Temp:Abs-Feuchte:Windchill:Wind:
Aussen-T/F 626 26-07-2020 04:05:00 17.8 C 13.81 g/m*3 17.8 C 3.2 km/h
627 26-07-2020 04:10:00 17.7 C 13.88 g/m*3 17.7 C 4.8 km/h
628 26-07-2020 04:15:00 17.7 C 13.88 g/m*3 17.7 C 3.2 km/h
629 26-07-2020 04:20:00 17.7 C 13.88 g/m*3 17.7 C 1.6 km/h
630 26-07-2020 04:25:00 17.7 C 13.88 g/m*3 17.7 C 1.6 km/h
631 26-07-2020 04:30:00 17.6 C 13.8 g/m*3 17.6 C 3.2 km/h
632 26-07-2020 04:35:00 17.6 C 13.8 g/m*3 17.6 C 3.2 km/h
633 26-07-2020 04:40:00 17.5 C 13.87 g/m*3 17.5 C 3.2 km/h
634 26-07-2020 04:45:00 17.4 C 13.78 g/m*3 17.4 C 3.2 km/h
635 26-07-2020 04:50:00 17.4 C 13.78 g/m*3 17.4 C 3.2 km/h
636 26-07-2020 04:55:00 17.4 C 13.78 g/m*3 17.4 C 1.6 km/h
637 26-07-2020 05:00:00 17.3 C 13.7 g/m*3 17.3 C 3.2 km/h
638 26-07-2020 05:05:00 17.3 C 13.7 g/m*3 17.3 C 1.6 km/h
639 26-07-2020 05:10:00 17.3 C 13.7 g/m*3 17.3 C 0 km/h
640 26-07-2020 05:15:00 17.3 C 13.7 g/m*3 17.3 C 0 km/h
641 26-07-2020 05:20:00 17.3 C 13.7 g/m*3 17.3 C 1.6 km/h
642 26-07-2020 05:25:00 17.2 C 13.62 g/m*3 17.2 C 3.2 km/h
643 26-07-2020 05:30:00 17.2 C 13.77 g/m*3 17.2 C 3.2 km/h
644 26-07-2020 05:35:00 17.2 C 13.77 g/m*3 17.2 C 3.2 km/h
645 26-07-2020 05:40:00 17.2 C 13.77 g/m*3 17.2 C 3.2 km/h
646 26-07-2020 05:45:00 17.1 C 13.68 g/m*3 17.1 C 0 km/h
647 26-07-2020 05:50:00 17.1 C 13.68 g/m*3 17.1 C 4.8 km/h
648 26-07-2020 05:55:00 17.1 C 13.68 g/m*3 17.1 C 4.8 km/h
649 26-07-2020 06:00:00 17.1 C 13.68 g/m*3 17.1 C 1.6 km/h
650 26-07-2020 06:05:00 17.1 C 13.68 g/m*3 17.1 C 1.6 km/h
Sensor: Nr:Datum:Temp:Abs-Feuchte:Windchill:Wind:
Aussen-T/F 651 26-07-2020 06:10:00 17.1 C 13.68 g/m*3 17.1 C 1.6 km/h
652 26-07-2020 06:15:00 17.1 C 13.68 g/m*3 17.1 C 1.6 km/h
653 26-07-2020 06:20:00 17.1 C 13.68 g/m*3 17.1 C 4.8 km/h
654 26-07-2020 06:25:00 17.1 C 13.68 g/m*3 17.1 C 4.8 km/h
655 26-07-2020 06:30:00 17.1 C 13.68 g/m*3 17.1 C 1.6 km/h
656 26-07-2020 06:35:00 17.1 C 13.68 g/m*3 17.1 C 4.8 km/h
657 26-07-2020 06:40:00 17.1 C 13.68 g/m*3 17.1 C 0 km/h
658 26-07-2020 06:45:00 17.2 C 13.77 g/m*3 17.2 C 1.6 km/h
659 26-07-2020 06:50:00 17.2 C 13.77 g/m*3 17.2 C 4.8 km/h
660 26-07-2020 06:55:00 17.3 C 13.85 g/m*3 17.3 C 0 km/h
661 26-07-2020 07:00:00 17.4 C 13.93 g/m*3 17.4 C 0 km/h
662 26-07-2020 07:05:00 17.5 C 14.01 g/m*3 17.5 C 1.6 km/h
663 26-07-2020 07:10:00 17.6 C 13.95 g/m*3 17.6 C 3.2 km/h
664 26-07-2020 07:15:00 17.7 C 14.03 g/m*3 17.7 C 3.2 km/h
665 26-07-2020 07:20:00 17.8 C 13.96 g/m*3 17.8 C 9.7 km/h
666 26-07-2020 07:25:00 18.1 C 13.91 g/m*3 18.1 C 9.7 km/h
667 26-07-2020 07:30:00 18.4 C 14 g/m*3 18.4 C 11.3 km/h
668 26-07-2020 07:35:00 18.7 C 13.93 g/m*3 18.7 C 12.9 km/h
669 26-07-2020 07:40:00 19 C 14.01 g/m*3 19 C 11.3 km/h
670 26-07-2020 07:45:00 19.3 C 14.1 g/m*3 19.3 C 9.7 km/h
671 26-07-2020 07:50:00 19.4 C 13.85 g/m*3 19.4 C 12.9 km/h
672 26-07-2020 07:55:00 19.5 C 13.93 g/m*3 19.5 C 9.7 km/h
673 26-07-2020 08:00:00 19.4 C 13.85 g/m*3 19.4 C 6.4 km/h
674 26-07-2020 08:05:00 19.3 C 13.77 g/m*3 19.3 C 8.1 km/h
675 26-07-2020 08:10:00 19.2 C 13.69 g/m*3 19.2 C 11.3 km/h
Sensor: Nr:Datum:Temp:Abs-Feuchte:Windchill:Wind:
Aussen-T/F 676 26-07-2020 08:15:00 19.3 C 13.77 g/m*3 19.3 C 11.3 km/h
677 26-07-2020 08:20:00 19.3 C 13.77 g/m*3 19.3 C 14.5 km/h
678 26-07-2020 08:25:00 19.4 C 13.68 g/m*3 19.4 C 14.5 km/h
679 26-07-2020 08:30:00 19.6 C 13.84 g/m*3 19.6 C 16.1 km/h
680 26-07-2020 08:35:00 19.6 C 13.67 g/m*3 19.6 C 14.5 km/h
681 26-07-2020 08:40:00 19.8 C 13.84 g/m*3 19.8 C 20.9 km/h
682 26-07-2020 08:45:00 19.9 C 13.74 g/m*3 19.9 C 14.5 km/h
683 26-07-2020 08:50:00 20.1 C 14.08 g/m*3 20.1 C 9.7 km/h
684 26-07-2020 08:55:00 20.2 C 13.81 g/m*3 20.2 C 16.1 km/h
685 26-07-2020 09:00:00 20.2 C 13.81 g/m*3 20.2 C 17.7 km/h
686 26-07-2020 09:05:00 20.2 C 14.16 g/m*3 20.2 C 11.3 km/h
687 26-07-2020 09:10:00 20.2 C 13.99 g/m*3 20.2 C 12.9 km/h
688 26-07-2020 09:15:00 20.3 C 14.07 g/m*3 20.3 C 14.5 km/h
689 26-07-2020 09:20:00 20.5 C 14.06 g/m*3 20.5 C 11.3 km/h
690 26-07-2020 09:25:00 20.6 C 13.96 g/m*3 20.6 C 9.7 km/h
691 26-07-2020 09:30:00 20.7 C 13.86 g/m*3 20.7 C 14.5 km/h
692 26-07-2020 09:35:00 20.8 C 14.12 g/m*3 20.8 C 12.9 km/h
693 26-07-2020 09:40:00 20.9 C 14.02 g/m*3 20.9 C 12.9 km/h
694 26-07-2020 09:45:00 20.9 C 14.02 g/m*3 20.9 C 9.7 km/h
695 26-07-2020 09:50:00 20.9 C 13.84 g/m*3 20.9 C 6.4 km/h
696 26-07-2020 09:55:00 21 C 13.74 g/m*3 21 C 9.7 km/h
697 26-07-2020 10:00:00 20.9 C 13.48 g/m*3 20.9 C 16.1 km/h
698 26-07-2020 10:05:00 20.9 C 13.48 g/m*3 20.9 C 12.9 km/h
699 26-07-2020 10:10:00 20.9 C 13.48 g/m*3 20.9 C 11.3 km/h
700 26-07-2020 10:15:00 21 C 13.56 g/m*3 21 C 16.1 km/h
Sensor: Nr:Datum:Temp:Abs-Feuchte:Windchill:Wind:
Aussen-T/F 701 26-07-2020 10:20:00 21.2 C 13.71 g/m*3 21.2 C 14.5 km/h
702 26-07-2020 10:25:00 21.4 C 13.5 g/m*3 21.4 C 19.3 km/h
703 26-07-2020 10:30:00 21.3 C 13.42 g/m*3 21.3 C 17.7 km/h
704 26-07-2020 10:35:00 21.3 C 13.42 g/m*3 21.3 C 17.7 km/h
705 26-07-2020 10:40:00 21.3 C 13.61 g/m*3 21.3 C 12.9 km/h
706 26-07-2020 10:45:00 21.3 C 13.61 g/m*3 21.3 C 17.7 km/h
707 26-07-2020 10:50:00 21.3 C 13.79 g/m*3 21.3 C 14.5 km/h
708 26-07-2020 10:55:00 21.4 C 13.69 g/m*3 21.4 C 9.7 km/h
709 26-07-2020 11:00:00 21.4 C 13.69 g/m*3 21.4 C 17.7 km/h
710 26-07-2020 11:05:00 21.6 C 13.85 g/m*3 21.6 C 14.5 km/h
711 26-07-2020 11:10:00 21.7 C 13.73 g/m*3 21.7 C 14.5 km/h
712 26-07-2020 11:15:00 21.9 C 13.89 g/m*3 21.9 C 16.1 km/h
713 26-07-2020 11:20:00 22 C 13.97 g/m*3 22 C 8.1 km/h
714 26-07-2020 11:25:00 22 C 13.78 g/m*3 22 C 9.7 km/h
715 26-07-2020 11:30:00 22.1 C 13.86 g/m*3 22.1 C 11.3 km/h
716 26-07-2020 11:35:00 22.2 C 13.94 g/m*3 22.2 C 11.3 km/h
717 26-07-2020 11:40:00 22.4 C 13.5 g/m*3 22.4 C 9.7 km/h
718 26-07-2020 11:45:00 22.6 C 13.66 g/m*3 22.6 C 11.3 km/h
719 26-07-2020 11:50:00 22.7 C 13.74 g/m*3 22.7 C 11.3 km/h
720 26-07-2020 11:55:00 22.8 C 13.41 g/m*3 22.8 C 14.5 km/h
721 26-07-2020 12:00:00 23 C 13.57 g/m*3 23 C 11.3 km/h
722 26-07-2020 12:05:00 23.1 C 13.44 g/m*3 23.1 C 8.1 km/h
723 26-07-2020 12:10:00 23.4 C 13.46 g/m*3 23.4 C 12.9 km/h
724 26-07-2020 12:15:00 23.6 C 13.4 g/m*3 23.6 C 14.5 km/h
725 26-07-2020 12:20:00 23.7 C 13.26 g/m*3 23.7 C 37 km/h
Sensor: Nr:Datum:Temp:Abs-Feuchte:Windchill:Wind:
Aussen-T/F 726 26-07-2020 12:25:00 21.7 C 14.12 g/m*3 21.7 C 37 km/h
727 26-07-2020 12:30:00 20 C 13.65 g/m*3 20 C 20.9 km/h
728 26-07-2020 12:35:00 19.2 C 13.69 g/m*3 19.2 C 11.3 km/h
729 26-07-2020 12:40:00 18.9 C 13.93 g/m*3 18.9 C 6.4 km/h
730 26-07-2020 12:45:00 19 C 14.5 g/m*3 19 C 3.2 km/h
731 26-07-2020 12:50:00 19.1 C 14.75 g/m*3 19.1 C 1.6 km/h
732 26-07-2020 12:55:00 19.2 C 14.84 g/m*3 19.2 C 4.8 km/h
733 26-07-2020 13:00:00 19.4 C 15.18 g/m*3 19.4 C 3.2 km/h
734 26-07-2020 13:05:00 19.7 C 15.11 g/m*3 19.7 C 11.3 km/h
735 26-07-2020 13:10:00 19.8 C 15.37 g/m*3 19.8 C 9.7 km/h
736 26-07-2020 13:15:00 19.8 C 14.35 g/m*3 19.8 C 11.3 km/h
737 26-07-2020 13:20:00 20.2 C 14.16 g/m*3 20.2 C 8.1 km/h
738 26-07-2020 13:25:00 20.6 C 13.6 g/m*3 20.6 C 12.9 km/h
739 26-07-2020 13:30:00 20.9 C 13.3 g/m*3 20.9 C 12.9 km/h
740 26-07-2020 13:35:00 21.3 C 12.86 g/m*3 21.3 C 12.9 km/h
741 26-07-2020 13:40:00 21.6 C 12.71 g/m*3 21.6 C 14.5 km/h
742 26-07-2020 13:45:00 21.9 C 12.35 g/m*3 21.9 C 9.7 km/h
743 26-07-2020 13:50:00 22.3 C 12.83 g/m*3 22.3 C 11.3 km/h
744 26-07-2020 13:55:00 22.7 C 12.32 g/m*3 22.7 C 14.5 km/h
745 26-07-2020 14:00:00 22.9 C 12.26 g/m*3 22.9 C 11.3 km/h
746 26-07-2020 14:05:00 23.1 C 11.99 g/m*3 23.1 C 12.9 km/h
747 26-07-2020 14:10:00 23.2 C 11.85 g/m*3 23.2 C 11.3 km/h
748 26-07-2020 14:15:00 23.3 C 11.92 g/m*3 23.3 C 17.7 km/h
749 26-07-2020 14:20:00 23.3 C 11.08 g/m*3 23.3 C 20.9 km/h
750 26-07-2020 14:25:00 23.4 C 11.14 g/m*3 23.4 C 16.1 km/h
Sensor: Nr:Datum:Temp:Abs-Feuchte:Windchill:Wind:
Aussen-T/F 751 26-07-2020 14:30:00 23.6 C 11.27 g/m*3 23.6 C 12.9 km/h
752 26-07-2020 14:35:00 23.7 C 11.12 g/m*3 23.7 C 19.3 km/h
753 26-07-2020 14:40:00 23.9 C 11.03 g/m*3 23.9 C 16.1 km/h
754 26-07-2020 14:45:00 24.1 C 11.82 g/m*3 24.1 C 14.5 km/h
755 26-07-2020 14:50:00 24.3 C 11.29 g/m*3 24.3 C 12.9 km/h
756 26-07-2020 14:55:00 24.3 C 11.29 g/m*3 24.3 C 11.3 km/h
757 26-07-2020 15:00:00 24.3 C 11.73 g/m*3 24.3 C 11.3 km/h
758 26-07-2020 15:05:00 24.5 C 11.64 g/m*3 24.5 C 9.7 km/h
759 26-07-2020 15:10:00 24.7 C 11.54 g/m*3 24.7 C 14.5 km/h
760 26-07-2020 15:15:00 24.7 C 10.86 g/m*3 24.7 C 16.1 km/h
761 26-07-2020 15:20:00 24.7 C 11.32 g/m*3 24.7 C 12.9 km/h
762 26-07-2020 15:25:00 24.8 C 10.93 g/m*3 24.8 C 16.1 km/h
763 26-07-2020 15:30:00 24.7 C 11.09 g/m*3 24.7 C 17.7 km/h
764 26-07-2020 15:35:00 24.6 C 11.03 g/m*3 24.6 C 14.5 km/h
765 26-07-2020 15:40:00 24.4 C 10.9 g/m*3 24.4 C 19.3 km/h
766 26-07-2020 15:45:00 24.2 C 10.78 g/m*3 24.2 C 14.5 km/h
767 26-07-2020 15:50:00 24.1 C 11.16 g/m*3 24.1 C 16.1 km/h
768 26-07-2020 15:55:00 24.4 C 10.9 g/m*3 24.4 C 22.5 km/h
769 26-07-2020 16:00:00 24.9 C 10.76 g/m*3 24.9 C 16.1 km/h
770 26-07-2020 16:05:00 25.3 C 10.53 g/m*3 25.3 C 14.5 km/h
771 26-07-2020 16:10:00 25.5 C 10.89 g/m*3 25.5 C 19.3 km/h
772 26-07-2020 16:15:00 25.5 C 11.13 g/m*3 25.5 C 8.1 km/h
773 26-07-2020 16:20:00 25.6 C 10.48 g/m*3 25.6 C 11.3 km/h
774 26-07-2020 16:25:00 25.2 C 10.48 g/m*3 25.2 C 17.7 km/h
775 26-07-2020 16:30:00 25.5 C 10.65 g/m*3 25.5 C 12.9 km/h
Sensor: Nr:Datum:Temp:Abs-Feuchte:Windchill:Wind:
Aussen-T/F 776 26-07-2020 16:35:00 26.2 C 10.59 g/m*3 26.2 C 12.9 km/h
777 26-07-2020 16:40:00 26.1 C 10.77 g/m*3 26.1 C 11.3 km/h
778 26-07-2020 16:45:00 25.8 C 10.59 g/m*3 25.8 C 12.9 km/h
779 26-07-2020 16:50:00 26 C 10.47 g/m*3 26 C 14.5 km/h
780 26-07-2020 16:55:00 25.9 C 10.65 g/m*3 25.9 C 11.3 km/h
781 26-07-2020 17:00:00 25.6 C 10 g/m*3 25.6 C 12.9 km/h
782 26-07-2020 17:05:00 25.6 C 10.24 g/m*3 25.6 C 16.1 km/h
783 26-07-2020 17:10:00 25.7 C 10.53 g/m*3 25.7 C 11.3 km/h
784 26-07-2020 17:15:00 25.9 C 10.65 g/m*3 25.9 C 9.7 km/h
785 26-07-2020 17:20:00 26.3 C 10.4 g/m*3 26.3 C 22.5 km/h
786 26-07-2020 17:25:00 26.4 C 10.46 g/m*3 26.4 C 20.9 km/h
787 26-07-2020 17:30:00 26.4 C 10.46 g/m*3 26.4 C 9.7 km/h
788 26-07-2020 17:35:00 26.6 C 10.07 g/m*3 26.6 C 14.5 km/h
789 26-07-2020 17:40:00 26.8 C 9.93 g/m*3 26.8 C 14.5 km/h
790 26-07-2020 17:45:00 26.7 C 9.87 g/m*3 26.7 C 14.5 km/h
791 26-07-2020 17:50:00 26.7 C 10.12 g/m*3 26.7 C 9.7 km/h
792 26-07-2020 17:55:00 26.9 C 10.24 g/m*3 26.9 C 11.3 km/h
793 26-07-2020 18:00:00 27.1 C 10.35 g/m*3 27.1 C 14.5 km/h
794 26-07-2020 18:05:00 27.2 C 10.41 g/m*3 27.2 C 11.3 km/h
795 26-07-2020 18:10:00 26.9 C 10.24 g/m*3 26.9 C 11.3 km/h
796 26-07-2020 18:15:00 26.2 C 10.59 g/m*3 26.2 C 12.9 km/h
797 26-07-2020 18:20:00 26 C 10.47 g/m*3 26 C 12.9 km/h
798 26-07-2020 18:25:00 26.3 C 10.15 g/m*3 26.3 C 12.9 km/h
799 26-07-2020 18:30:00 26.3 C 9.9 g/m*3 26.3 C 14.5 km/h
800 26-07-2020 18:35:00 25.9 C 10.17 g/m*3 25.9 C 12.9 km/h
Sensor: Nr:Datum:Temp:Abs-Feuchte:Windchill:Wind:
Aussen-T/F 801 26-07-2020 18:40:00 25.6 C 10.24 g/m*3 25.6 C 11.3 km/h
802 26-07-2020 18:45:00 25.3 C 10.07 g/m*3 25.3 C 16.1 km/h
803 26-07-2020 18:50:00 25.3 C 10.07 g/m*3 25.3 C 16.1 km/h
804 26-07-2020 18:55:00 25.1 C 10.19 g/m*3 25.1 C 16.1 km/h
805 26-07-2020 19:00:00 24.8 C 10.24 g/m*3 24.8 C 16.1 km/h
806 26-07-2020 19:05:00 24.6 C 10.13 g/m*3 24.6 C 16.1 km/h
807 26-07-2020 19:10:00 24.3 C 10.18 g/m*3 24.3 C 11.3 km/h
808 26-07-2020 19:15:00 24.2 C 10.12 g/m*3 24.2 C 11.3 km/h
809 26-07-2020 19:20:00 24 C 10.23 g/m*3 24 C 16.1 km/h
810 26-07-2020 19:25:00 23.9 C 10.6 g/m*3 23.9 C 14.5 km/h
811 26-07-2020 19:30:00 23.9 C 10.82 g/m*3 23.9 C 16.1 km/h
812 26-07-2020 19:35:00 23.8 C 10.76 g/m*3 23.8 C 14.5 km/h
813 26-07-2020 19:40:00 23.7 C 10.91 g/m*3 23.7 C 11.3 km/h
814 26-07-2020 19:45:00 23.5 C 10.79 g/m*3 23.5 C 11.3 km/h
815 26-07-2020 19:50:00 23.4 C 10.72 g/m*3 23.4 C 9.7 km/h
816 26-07-2020 19:55:00 23.2 C 10.6 g/m*3 23.2 C 12.9 km/h
817 26-07-2020 20:00:00 22.8 C 10.57 g/m*3 22.8 C 12.9 km/h
818 26-07-2020 20:05:00 22.6 C 10.45 g/m*3 22.6 C 12.9 km/h
819 26-07-2020 20:10:00 22.5 C 10.59 g/m*3 22.5 C 4.8 km/h
820 26-07-2020 20:15:00 22.4 C 11.12 g/m*3 22.4 C 1.6 km/h
821 26-07-2020 20:20:00 22.3 C 11.06 g/m*3 22.3 C 3.2 km/h
822 26-07-2020 20:25:00 22.1 C 11.13 g/m*3 22.1 C 1.6 km/h
823 26-07-2020 20:30:00 21.9 C 11 g/m*3 21.9 C 0 km/h
824 26-07-2020 20:35:00 21.9 C 11.39 g/m*3 21.9 C 1.6 km/h
825 26-07-2020 20:40:00 21.8 C 11.13 g/m*3 21.8 C 3.2 km/h
Sensor: Nr:Datum:Temp:Abs-Feuchte:Windchill:Wind:
Aussen-T/F 826 26-07-2020 20:45:00 21.8 C 10.94 g/m*3 21.8 C 3.2 km/h
827 26-07-2020 20:50:00 21.8 C 10.94 g/m*3 21.8 C 1.6 km/h
828 26-07-2020 20:55:00 21.8 C 11.13 g/m*3 21.8 C 0 km/h
829 26-07-2020 21:00:00 21.9 C 11.39 g/m*3 21.9 C 1.6 km/h
830 26-07-2020 21:05:00 21.8 C 11.9 g/m*3 21.8 C 0 km/h
831 26-07-2020 21:10:00 21.6 C 11.57 g/m*3 21.6 C 1.6 km/h
832 26-07-2020 21:15:00 21.3 C 11.56 g/m*3 21.3 C 1.6 km/h
833 26-07-2020 21:20:00 20.9 C 11.47 g/m*3 20.9 C 0 km/h
834 26-07-2020 21:25:00 20.6 C 11.28 g/m*3 20.6 C 1.6 km/h
835 26-07-2020 21:30:00 20.3 C 11.26 g/m*3 20.3 C 3.2 km/h
836 26-07-2020 21:35:00 20.1 C 11.3 g/m*3 20.1 C 0 km/h
837 26-07-2020 21:40:00 19.8 C 11.27 g/m*3 19.8 C 1.6 km/h
838 26-07-2020 21:45:00 19.7 C 11.38 g/m*3 19.7 C 3.2 km/h
839 26-07-2020 21:50:00 19.6 C 11.31 g/m*3 19.6 C 1.6 km/h
840 26-07-2020 21:55:00 19.4 C 11.18 g/m*3 19.4 C 0 km/h
841 26-07-2020 22:00:00 19.4 C 11.35 g/m*3 19.4 C 0 km/h
842 26-07-2020 22:05:00 19.3 C 11.28 g/m*3 19.3 C 0 km/h
843 26-07-2020 22:10:00 19.2 C 11.21 g/m*3 19.2 C 6.4 km/h
844 26-07-2020 22:15:00 19.1 C 11.15 g/m*3 19.1 C 6.4 km/h
845 26-07-2020 22:20:00 18.9 C 11.18 g/m*3 18.9 C 4.8 km/h
846 26-07-2020 22:25:00 18.8 C 11.11 g/m*3 18.8 C 6.4 km/h
847 26-07-2020 22:30:00 18.7 C 11.21 g/m*3 18.7 C 3.2 km/h
848 26-07-2020 22:35:00 18.6 C 11.14 g/m*3 18.6 C 6.4 km/h
849 26-07-2020 22:40:00 18.5 C 11.08 g/m*3 18.5 C 3.2 km/h
850 26-07-2020 22:45:00 18.4 C 11.17 g/m*3 18.4 C 4.8 km/h
Sensor: Nr:Datum:Temp:Abs-Feuchte:Windchill:Wind:
Aussen-T/F 851 26-07-2020 22:50:00 18.2 C 11.04 g/m*3 18.2 C 4.8 km/h
852 26-07-2020 22:55:00 18.1 C 10.97 g/m*3 18.1 C 0 km/h
853 26-07-2020 23:00:00 18 C 11.06 g/m*3 18 C 4.8 km/h
854 26-07-2020 23:05:00 17.8 C 11.08 g/m*3 17.8 C 6.4 km/h
855 26-07-2020 23:10:00 17.7 C 11.16 g/m*3 17.7 C 1.6 km/h
856 26-07-2020 23:15:00 17.6 C 11.1 g/m*3 17.6 C 0 km/h
857 26-07-2020 23:20:00 17.5 C 11.18 g/m*3 17.5 C 0 km/h
858 26-07-2020 23:25:00 17.3 C 11.05 g/m*3 17.3 C 0 km/h
859 26-07-2020 23:30:00 17.3 C 11.2 g/m*3 17.3 C 0 km/h
860 26-07-2020 23:35:00 17.2 C 11.13 g/m*3 17.2 C 0 km/h
861 26-07-2020 23:40:00 17.1 C 11.21 g/m*3 17.1 C 0 km/h
862 26-07-2020 23:45:00 16.9 C 11.22 g/m*3 16.9 C 0 km/h
863 26-07-2020 23:50:00 16.9 C 11.22 g/m*3 16.9 C 0 km/h
864 26-07-2020 23:55:00 16.8 C 11.29 g/m*3 16.8 C 0 km/h

Legende:
   Min
   Max


Maximal/Minimal-Werte vom 24.07.2020 - 26.07.2020

Sensor Min Max Avg
Temp
(Aussen-T/F)
14.4 °C
25-07-2020  05:25:00
27.4 °C
25-07-2020  16:15:00
21.03 °C
Abs-Feuchte
(Aussen-T/F)
9.23 g/m*3
24-07-2020  13:10:00
15.37 g/m*3
26-07-2020  13:10:00
11.75 g/m*3
Windchill
(Aussen-T/F)
14.4 C
25-07-2020  05:25:00
27.4 C
25-07-2020  16:15:00
21.01 C

Die Daten stammen von einer Davis Vantage Pro 2 Wetter-Station und werden unter Linux mit der Software wview2wettercgi und aufbereitet. Alle Angaben erfolgen ohne Gewähr für ihre Vollständigkeit oder Richtigkeit.
Kontakt: Rainer Krienke krienke@uni-koblenz.de . Meine Webseiten an der Uni Koblenz oder privat.
Version: $Revision: 0.78 $